Time;durP1;ratioP1;P1;durP2;ratioP2;P2;SDS_P1;SDS_P2;PMS_P1;PMS_P2;Temp;Humidity;BMP_temperature;BMP_pressure;BME280_temperature;BME280_humidity;BME280_pressure;Samples;Min_cycle;Max_cycle;Signal;HPM_P1;HPM_P2
2023/12/26 00:01:11;;;;;;;3.13;2.35;;;;;;;7.24;60.06;62742.94;5108820;28;20290;-77
2023/12/26 00:03:38;;;;;;;2.92;2.00;;;;;;;7.22;59.96;62740.88;5108618;28;20196;-78
2023/12/26 00:06:06;;;;;;;2.83;1.92;;;;;;;7.17;60.50;62740.78;5109446;28;20444;-78
2023/12/26 00:08:33;;;;;;;4.72;2.03;;;;;;;7.18;60.97;62741.28;5109750;28;20472;-77
2023/12/26 00:11:01;;;;;;;3.20;2.30;;;;;;;7.15;61.04;62733.13;5109357;28;20247;-77
2023/12/26 00:13:28;;;;;;;3.78;1.90;;;;;;;7.16;60.98;62736.69;5109195;28;20508;-77
2023/12/26 00:15:55;;;;;;;2.40;2.20;;;;;;;7.16;61.04;62737.22;5109937;28;20238;-77
2023/12/26 00:18:22;;;;;;;3.45;2.05;;;;;;;7.16;58.72;62734.16;5108904;28;20196;-77
2023/12/26 00:20:51;;;;;;;3.55;1.90;;;;;;;7.21;59.09;62739.84;5107879;28;20585;-77
2023/12/26 00:23:18;;;;;;;2.25;2.13;;;;;;;7.26;59.08;62744.47;5108498;28;20215;-77
2023/12/26 00:25:46;;;;;;;3.42;2.00;;;;;;;7.30;58.78;62749.13;5109785;28;20268;-80
2023/12/26 00:28:17;;;;;;;1.83;1.65;;;;;;;7.25;59.50;62743.44;5107938;28;20195;-76
2023/12/26 00:30:44;;;;;;;2.25;2.05;;;;;;;7.20;59.99;62740.81;5108550;28;20220;-76
2023/12/26 00:33:11;;;;;;;2.85;2.03;;;;;;;7.23;59.92;62743.91;5108895;28;20657;-77
2023/12/26 00:35:38;;;;;;;2.17;2.08;;;;;;;7.23;60.71;62746.94;5108631;28;20215;-76
2023/12/26 00:38:05;;;;;;;2.85;1.98;;;;;;;7.20;60.84;62740.81;5110500;28;20241;-78
2023/12/26 00:40:32;;;;;;;2.65;2.20;;;;;;;7.15;61.25;62730.59;5108407;28;20287;-78
2023/12/26 00:42:59;;;;;;;4.55;4.05;;;;;;;7.23;61.73;62741.38;5106713;28;20565;-76
2023/12/26 00:45:28;;;;;;;6.03;3.47;;;;;;;7.14;61.81;62737.69;5107622;28;20220;-77
2023/12/26 00:47:57;;;;;;;4.07;3.67;;;;;;;7.23;62.23;62746.94;5109558;28;20227;-77
2023/12/26 00:50:24;;;;;;;4.43;3.42;;;;;;;7.18;61.96;62741.78;5108722;28;20224;-78
2023/12/26 00:52:51;;;;;;;9.48;3.50;;;;;;;7.11;62.35;62731.53;5108433;28;20489;-77
2023/12/26 00:55:18;;;;;;;5.85;2.45;;;;;;;7.16;62.72;62736.69;5108674;28;20215;-77
2023/12/26 00:57:45;;;;;;;2.35;1.98;;;;;;;7.10;61.39;62725.94;5107060;28;20377;-76
2023/12/26 01:00:14;;;;;;;4.95;3.05;;;;;;;7.13;61.79;62734.09;5107097;28;20226;-77
2023/12/26 01:02:43;;;;;;;4.93;3.28;;;;;;;7.03;62.53;62724.31;5107617;28;20261;-79
2023/12/26 01:05:10;;;;;;;10.73;3.75;;;;;;;6.98;63.48;62718.63;5109676;28;20425;-77
2023/12/26 01:07:37;;;;;;;6.35;3.67;;;;;;;6.89;64.80;62709.88;5108695;28;20228;-76
2023/12/26 01:10:05;;;;;;;3.88;3.50;;;;;;;6.85;65.91;62700.16;5106984;28;20228;-77
2023/12/26 01:12:32;;;;;;;10.65;3.92;;;;;;;6.89;67.29;62711.88;5107460;28;20196;-78
2023/12/26 01:14:59;;;;;;;6.25;3.55;;;;;;;6.90;67.64;62710.88;5106012;28;20220;-78
2023/12/26 01:17:25;;;;;;;7.13;3.22;;;;;;;6.83;68.36;62700.63;5106154;28;20192;-78
2023/12/26 01:19:55;;;;;;;5.65;2.60;;;;;;;6.88;68.80;62710.84;5107138;28;20277;-77
2023/12/26 01:22:22;;;;;;;4.20;3.10;;;;;;;6.76;68.91;62696.47;5107714;28;20223;-77
2023/12/26 01:24:50;;;;;;;5.35;2.83;;;;;;;6.68;69.69;62687.69;5106258;28;20223;-77
2023/12/26 01:27:16;;;;;;;3.90;3.45;;;;;;;6.75;69.98;62692.88;5107332;28;20464;-78
2023/12/26 01:29:43;;;;;;;4.60;3.35;;;;;;;6.73;69.96;62690.81;5106351;28;20222;-78
2023/12/26 01:32:10;;;;;;;5.78;2.72;;;;;;;6.67;69.37;62684.66;5105653;28;20196;-77
2023/12/26 01:34:37;;;;;;;5.70;2.65;;;;;;;6.52;68.42;62674.22;5107710;28;20234;-77
2023/12/26 01:37:06;;;;;;;8.48;2.92;;;;;;;6.51;69.13;62673.19;5105290;28;20226;-77
2023/12/26 01:39:33;;;;;;;3.85;2.60;;;;;;;6.51;69.38;62673.19;5106458;28;20220;-77
2023/12/26 01:42:00;;;;;;;5.85;2.80;;;;;;;6.46;69.50;62663.00;5106454;28;20274;-76
2023/12/26 01:44:27;;;;;;;3.88;2.22;;;;;;;6.44;69.50;62662.94;5106120;28;20223;-77
2023/12/26 01:46:54;;;;;;;2.35;2.08;;;;;;;6.33;68.52;62657.19;5105278;28;20228;-77
2023/12/26 01:49:20;;;;;;;3.17;2.28;;;;;;;6.39;68.22;62655.25;5105938;28;20215;-77
2023/12/26 01:51:48;;;;;;;3.85;2.45;;;;;;;6.38;69.36;62657.28;5108223;28;20221;-77
2023/12/26 01:54:16;;;;;;;7.07;3.38;;;;;;;6.35;69.79;62654.16;5106642;28;20582;-78
2023/12/26 01:56:43;;;;;;;3.10;2.80;;;;;;;6.29;70.29;62642.41;5105731;28;20192;-77
2023/12/26 01:59:10;;;;;;;2.45;2.05;;;;;;;6.33;69.13;62647.06;5106830;28;20246;-77
2023/12/26 02:01:37;;;;;;;3.95;2.58;;;;;;;6.29;69.36;62648.00;5105893;28;20481;-78
2023/12/26 02:04:04;;;;;;;3.97;2.88;;;;;;;6.34;69.96;62652.63;5105141;28;20222;-77
2023/12/26 02:06:31;;;;;;;3.25;2.53;;;;;;;6.34;69.66;62652.63;5104738;28;20255;-77
2023/12/26 02:08:58;;;;;;;2.80;2.25;;;;;;;6.33;70.35;62647.06;5105627;28;20329;-76
2023/12/26 02:11:26;;;;;;;6.57;2.67;;;;;;;6.26;70.14;62641.84;5105104;28;20199;-77
2023/12/26 02:13:53;;;;;;;2.63;2.15;;;;;;;6.25;69.09;62638.28;5103861;28;20200;-77
2023/12/26 02:16:21;;;;;;;6.22;2.58;;;;;;;6.27;68.90;62645.41;5105702;28;20501;-77
2023/12/26 02:18:48;;;;;;;3.53;2.22;;;;;;;6.27;68.69;62642.88;5105341;28;20199;-78
2023/12/26 02:21:16;;;;;;;3.63;2.50;;;;;;;6.35;68.75;62654.16;5105042;28;20244;-77
2023/12/26 02:23:43;;;;;;;2.60;2.40;;;;;;;6.29;68.38;62642.94;5104849;28;20237;-78
2023/12/26 02:26:11;;;;;;;3.28;2.97;;;;;;;6.32;69.38;62650.56;5106742;28;20196;-77
2023/12/26 02:28:38;;;;;;;2.03;1.83;;;;;;;6.29;69.88;62644.94;5105060;28;20287;-77
2023/12/26 02:31:05;;;;;;;2.67;2.20;;;;;;;6.25;69.34;62646.38;5105558;28;20206;-76
2023/12/26 02:33:32;;;;;;;5.10;2.10;;;;;;;6.29;67.89;62653.03;5106678;28;20213;-78
2023/12/26 02:35:59;;;;;;;2.97;2.10;;;;;;;6.19;68.28;62634.63;5105375;28;20216;-77
2023/12/26 02:38:26;;;;;;;2.65;2.22;;;;;;;6.14;68.46;62629.47;5103903;28;20268;-77
2023/12/26 02:40:53;;;;;;;2.05;1.90;;;;;;;6.14;68.53;62632.00;5106031;28;20218;-78
2023/12/26 02:43:22;;;;;;;3.72;2.33;;;;;;;6.14;68.70;62626.97;5105822;28;20230;-77
2023/12/26 02:45:49;;;;;;;1.98;1.75;;;;;;;6.20;68.52;62638.19;5104741;28;20239;-78
2023/12/26 02:48:16;;;;;;;3.22;2.03;;;;;;;6.17;68.25;62637.63;5106730;28;20228;-78
2023/12/26 02:50:43;;;;;;;4.28;2.40;;;;;;;6.14;68.73;62632.00;5109807;28;20215;-77
2023/12/26 02:53:10;;;;;;;5.57;2.47;;;;;;;6.11;67.91;62631.44;5105472;28;20407;-78
2023/12/26 02:55:37;;;;;;;5.18;3.03;;;;;;;6.23;67.27;62641.78;5105153;28;20402;-79
2023/12/26 02:58:05;;;;;;;4.53;2.90;;;;;;;6.22;67.78;62640.25;5106512;28;20196;-78
2023/12/26 03:00:34;;;;;;;2.20;2.05;;;;;;;6.31;67.19;62647.53;5105305;28;20261;-77
2023/12/26 03:03:01;;;;;;;4.55;2.50;;;;;;;6.37;66.71;62656.22;5104965;28;20259;-78
2023/12/26 03:05:28;;;;;;;7.30;3.03;;;;;;;6.29;68.09;62645.47;5106969;28;20235;-78
2023/12/26 03:07:55;;;;;;;3.72;3.25;;;;;;;6.33;68.82;62649.59;5106300;28;20255;-77
2023/12/26 03:10:21;;;;;;;4.20;3.30;;;;;;;6.18;69.80;62633.63;5105014;28;20215;-76
2023/12/26 03:12:49;;;;;;;3.95;3.15;;;;;;;6.13;70.39;62628.97;5104867;28;20215;-78
2023/12/26 03:15:16;;;;;;;6.97;3.42;;;;;;;6.20;70.51;62641.22;5105615;28;20561;-78
2023/12/26 03:17:45;;;;;;;2.75;2.53;;;;;;;6.22;70.65;62635.72;5104963;28;20195;-77
2023/12/26 03:20:12;;;;;;;9.40;3.45;;;;;;;6.24;70.36;62637.25;5104957;28;20521;-76
2023/12/26 03:22:40;;;;;;;4.70;2.70;;;;;;;6.27;69.65;62648.44;5104733;28;20259;-77
2023/12/26 03:25:07;;;;;;;4.85;3.00;;;;;;;6.42;68.96;62668.97;5106432;28;20271;-77
2023/12/26 03:27:34;;;;;;;3.55;2.28;;;;;;;6.34;67.90;62655.16;5108580;28;20259;-76
2023/12/26 03:30:01;;;;;;;5.28;2.42;;;;;;;6.36;67.70;62657.22;5109552;28;20390;-77
2023/12/26 03:32:28;;;;;;;2.50;1.60;;;;;;;6.34;65.62;62655.66;5108297;28;20202;-77
2023/12/26 03:34:56;;;;;;;1.85;1.73;;;;;;;6.44;63.88;62660.41;5108323;28;20212;-77
2023/12/26 03:37:23;;;;;;;4.97;1.90;;;;;;;6.39;63.24;62655.25;5109136;28;20230;-77
2023/12/26 03:39:53;;;;;;;4.57;2.20;;;;;;;6.44;63.20;62658.41;5109119;28;20216;-78
2023/12/26 03:42:20;;;;;;;3.75;1.52;;;;;;;6.51;61.69;62668.13;5108285;28;20396;-77
2023/12/26 03:44:47;;;;;;;3.50;1.80;;;;;;;6.62;62.13;62681.50;5109898;28;20230;-77
2023/12/26 03:47:14;;;;;;;2.13;1.90;;;;;;;6.62;62.35;62678.97;5108891;28;20477;-77
2023/12/26 03:49:41;;;;;;;5.75;2.08;;;;;;;6.62;62.27;62678.97;5108629;28;20216;-77
2023/12/26 03:52:10;;;;;;;2.70;1.60;;;;;;;6.49;62.12;62665.56;5109386;28;20222;-76
2023/12/26 03:54:37;;;;;;;5.18;3.17;;;;;;;6.51;63.22;62670.16;5108512;28;20215;-77
2023/12/26 03:57:05;;;;;;;5.57;3.80;;;;;;;6.52;63.31;62673.72;5108990;28;20259;-77
2023/12/26 03:59:32;;;;;;;5.60;2.30;;;;;;;6.43;63.38;62657.38;5108901;28;20219;-77
2023/12/26 04:02:01;;;;;;;1.77;1.67;;;;;;;6.46;63.16;62662.47;5110645;28;20200;-77
2023/12/26 04:04:28;;;;;;;4.82;3.58;;;;;;;6.45;62.90;62664.50;5108206;28;20243;-76
2023/12/26 04:06:55;;;;;;;4.03;3.72;;;;;;;6.30;63.28;62645.97;5109238;28;20249;-76
2023/12/26 04:09:23;;;;;;;4.00;2.50;;;;;;;6.33;63.07;62654.66;5109016;28;20240;-77
2023/12/26 04:11:50;;;;;;;2.35;2.15;;;;;;;6.29;63.13;62647.47;5107720;28;20361;-78
2023/12/26 04:14:17;;;;;;;3.28;1.63;;;;;;;6.28;62.41;62646.94;5109154;28;20216;-77
2023/12/26 04:16:44;;;;;;;1.42;1.33;;;;;;;6.26;62.42;62642.38;5109570;28;20263;-77
2023/12/26 04:19:11;;;;;;;2.53;1.73;;;;;;;6.20;62.93;62638.19;5107501;28;20234;-77
2023/12/26 04:21:38;;;;;;;3.08;2.53;;;;;;;6.31;63.98;62652.59;5108069;28;20234;-77
2023/12/26 04:24:05;;;;;;;1.92;1.83;;;;;;;6.23;64.28;62641.78;5108882;28;20281;-77
2023/12/26 04:26:36;;;;;;;3.40;1.60;;;;;;;6.23;64.34;62641.28;5109219;28;20196;-77
2023/12/26 04:29:03;;;;;;;3.45;2.13;;;;;;;6.31;64.18;62647.53;5107485;28;20322;-77
2023/12/26 04:31:30;;;;;;;3.35;1.58;;;;;;;6.29;64.75;62648.00;5108414;28;20373;-77
2023/12/26 04:33:57;;;;;;;2.17;1.98;;;;;;;6.27;63.99;62645.94;5109069;28;20318;-77
2023/12/26 04:36:23;;;;;;;6.15;3.00;;;;;;;6.29;64.36;62642.41;5107227;28;20206;-77
2023/12/26 04:38:50;;;;;;;4.18;1.92;;;;;;;6.27;64.68;62645.94;5107826;28;20245;-78
2023/12/26 04:41:17;;;;;;;2.90;2.45;;;;;;;6.21;65.40;62636.69;5109387;28;20192;-77
2023/12/26 04:43:47;;;;;;;6.55;2.42;;;;;;;6.21;65.92;62642.28;5109328;28;20238;-77
2023/12/26 04:46:19;;;;;;;2.35;2.10;;;;;;;6.22;65.47;62635.72;5107863;28;20268;-77
2023/12/26 04:48:46;;;;;;;2.85;2.10;;;;;;;6.12;66.42;62630.47;5107767;28;20333;-77
2023/12/26 04:51:16;;;;;;;2.03;1.75;;;;;;;6.09;66.74;62626.84;5110340;28;20200;-77
2023/12/26 04:53:43;;;;;;;4.05;2.30;;;;;;;6.10;66.44;62628.41;5107883;28;20200;-78
2023/12/26 04:56:10;;;;;;;3.10;2.20;;;;;;;6.05;67.01;62617.69;5108166;28;20196;-78
2023/12/26 04:58:37;;;;;;;3.38;2.60;;;;;;;6.03;67.47;62621.19;5107961;28;20256;-78
2023/12/26 05:01:06;;;;;;;4.95;2.90;;;;;;;6.01;67.72;62618.59;5108105;28;20224;-77
2023/12/26 05:03:32;;;;;;;4.88;2.08;;;;;;;5.98;68.41;62613.50;5107433;28;20199;-78
2023/12/26 05:05:59;;;;;;;1.80;1.63;;;;;;;5.99;68.13;62619.09;5108048;28;20223;-78
2023/12/26 05:08:26;;;;;;;2.05;1.73;;;;;;;5.93;68.57;62613.41;5108771;28;20221;-77
2023/12/26 05:10:53;;;;;;;1.65;1.55;;;;;;;5.87;68.41;62599.13;5108334;28;20254;-78
2023/12/26 05:13:20;;;;;;;2.35;1.60;;;;;;;5.86;67.79;62601.13;5108015;28;20493;-78
2023/12/26 05:15:47;;;;;;;2.17;1.55;;;;;;;5.83;67.69;62600.59;5108945;28;20294;-78
2023/12/26 05:18:15;;;;;;;1.83;1.60;;;;;;;5.74;68.13;62586.22;5107849;28;20206;-77
2023/12/26 05:20:42;;;;;;;1.48;1.38;;;;;;;5.71;68.32;62590.72;5106780;28;20252;-77
2023/12/26 05:23:09;;;;;;;2.17;1.95;;;;;;;5.72;68.29;62586.69;5107560;28;20211;-77
2023/12/26 05:25:36;;;;;;;6.32;1.55;;;;;;;5.78;67.78;62595.41;5108644;28;20216;-77
2023/12/26 05:28:03;;;;;;;3.55;1.58;;;;;;;5.70;68.19;62584.63;5107638;28;20254;-78
2023/12/26 05:30:30;;;;;;;2.97;1.50;;;;;;;5.63;68.71;62574.88;5107904;28;20486;-79
2023/12/26 05:32:58;;;;;;;1.58;1.00;;;;;;;5.66;68.76;62583.03;5107653;28;20202;-77
2023/12/26 05:35:26;;;;;;;3.00;1.35;;;;;;;5.68;68.21;62580.56;5107891;28;20220;-78
2023/12/26 05:37:53;;;;;;;1.25;1.25;;;;;;;5.66;71.36;62578.50;5106965;28;20238;-78
2023/12/26 05:40:20;;;;;;;1.70;1.60;;;;;;;5.57;70.79;62576.78;5108028;28;20434;-78
2023/12/26 05:42:47;;;;;;;6.00;2.53;;;;;;;5.46;70.79;62560.41;5106932;28;20242;-77
2023/12/26 05:45:16;;;;;;;4.78;2.30;;;;;;;5.48;72.29;62565.00;5108293;28;20220;-78
2023/12/26 05:47:43;;;;;;;5.00;2.35;;;;;;;5.39;72.05;62555.72;5106069;28;20218;-78
2023/12/26 05:50:11;;;;;;;1.83;1.70;;;;;;;5.35;72.53;62549.09;5106602;28;20216;-77
2023/12/26 05:52:39;;;;;;;2.20;2.00;;;;;;;5.33;72.94;62552.06;5106102;28;20381;-77
2023/12/26 05:55:06;;;;;;;2.42;2.20;;;;;;;5.30;73.47;62548.47;5106297;28;20231;-77
2023/12/26 05:57:33;;;;;;;2.38;2.25;;;;;;;5.32;73.80;62550.53;5106901;28;20241;-78
2023/12/26 06:00:00;;;;;;;3.75;2.85;;;;;;;5.29;74.36;62547.44;5107835;28;20269;-78
2023/12/26 06:02:27;;;;;;;4.15;2.05;;;;;;;5.29;75.44;62542.38;5106558;28;20196;-78
2023/12/26 06:04:54;;;;;;;3.50;2.30;;;;;;;5.23;75.47;62541.78;5106301;28;20288;-77
2023/12/26 06:07:21;;;;;;;4.22;2.80;;;;;;;5.18;75.44;62531.56;5106287;28;20394;-78
2023/12/26 06:09:49;;;;;;;2.75;2.28;;;;;;;5.19;75.62;62537.16;5106587;28;20441;-78
2023/12/26 06:12:16;;;;;;;2.60;1.98;;;;;;;5.21;75.58;62532.13;5108370;28;20227;-78
2023/12/26 06:14:43;;;;;;;6.95;2.60;;;;;;;5.19;75.43;62537.66;5107581;28;20413;-78
2023/12/26 06:17:10;;;;;;;3.53;2.20;;;;;;;5.17;76.18;62530.56;5105607;28;20199;-78
2023/12/26 06:19:37;;;;;;;5.20;2.13;;;;;;;5.25;75.58;62543.31;5108006;28;20229;-77
2023/12/26 06:22:05;;;;;;;2.25;2.13;;;;;;;5.28;75.08;62543.91;5107863;28;20199;-77
2023/12/26 06:24:32;;;;;;;4.93;3.25;;;;;;;5.27;75.60;62543.38;5106002;28;20223;-77
2023/12/26 06:27:00;;;;;;;2.67;2.40;;;;;;;5.35;75.39;62551.59;5106579;28;20200;-78
2023/12/26 06:29:27;;;;;;;3.88;2.72;;;;;;;5.33;75.82;62549.03;5108171;28;20243;-78
2023/12/26 06:31:54;;;;;;;2.45;1.88;;;;;;;5.37;75.79;62553.16;5106156;28;20453;-79
2023/12/26 06:34:20;;;;;;;2.50;2.00;;;;;;;5.38;75.50;62552.19;5106260;28;20226;-77
2023/12/26 06:36:47;;;;;;;2.30;1.75;;;;;;;5.45;75.54;62561.41;5108304;28;20196;-78
2023/12/26 06:39:15;;;;;;;2.65;1.55;;;;;;;5.47;76.52;62568.50;5105353;28;20266;-77
2023/12/26 06:41:43;;;;;;;4.55;2.10;;;;;;;5.59;76.35;62578.34;5105560;28;20199;-78
2023/12/26 06:44:11;;;;;;;5.45;3.10;;;;;;;5.59;75.68;62578.34;5106537;28;20542;-78
2023/12/26 06:46:40;;;;;;;4.85;3.42;;;;;;;5.63;73.81;62579.94;5106558;28;20198;-77
2023/12/26 06:49:07;;;;;;;5.28;2.00;;;;;;;5.72;73.67;62589.75;5105439;28;20245;-77
2023/12/26 06:51:35;;;;;;;2.92;1.70;;;;;;;5.76;74.43;62590.81;5104988;28;20196;-78
2023/12/26 06:54:02;;;;;;;2.70;1.92;;;;;;;5.84;73.82;62604.66;5107398;28;20246;-77
2023/12/26 06:56:29;;;;;;;3.25;2.45;;;;;;;5.91;72.71;62608.81;5106533;28;20282;-77
2023/12/26 06:58:57;;;;;;;5.60;3.80;;;;;;;6.00;72.41;62615.06;5106480;28;20276;-78
2023/12/26 07:01:26;;;;;;;4.40;3.85;;;;;;;6.13;71.35;62631.50;5109947;28;20192;-78
2023/12/26 07:03:52;;;;;;;6.90;3.53;;;;;;;6.15;72.07;62633.56;5110142;28;20238;-78
2023/12/26 07:06:19;;;;;;;4.78;3.70;;;;;;;6.19;72.04;62637.16;5108868;28;20433;-77
2023/12/26 07:08:46;;;;;;;5.00;3.95;;;;;;;6.31;72.44;62652.06;5109266;28;20392;-77
2023/12/26 07:11:13;;;;;;;11.10;4.70;;;;;;;6.41;72.23;62660.38;5111370;28;20256;-77
2023/12/26 07:13:40;;;;;;;5.03;3.75;;;;;;;6.51;72.46;62670.16;5110215;28;20184;-77
2023/12/26 07:16:07;;;;;;;5.15;4.35;;;;;;;6.81;72.04;62701.09;5108754;28;20267;-78
2023/12/26 07:18:36;;;;;;;8.45;4.60;;;;;;;7.15;71.67;62736.16;5109079;28;20227;-78
2023/12/26 07:21:03;;;;;;;6.32;5.45;;;;;;;7.37;70.19;62758.88;5109852;28;20484;-78
2023/12/26 07:23:30;;;;;;;7.25;4.75;;;;;;;7.55;68.85;62774.41;5111121;28;20207;-77
2023/12/26 07:25:57;;;;;;;7.85;4.75;;;;;;;7.56;68.40;62775.44;5109592;28;20215;-77
2023/12/26 07:28:24;;;;;;;10.15;6.13;;;;;;;7.55;67.84;62776.94;5109309;28;20219;-78
2023/12/26 07:30:51;;;;;;;13.48;5.43;;;;;;;7.39;68.82;62763.47;5109272;28;20251;-77
2023/12/26 07:33:18;;;;;;;11.85;5.88;;;;;;;7.48;68.98;62769.72;5108550;28;20519;-78
2023/12/26 07:35:47;;;;;;;11.23;6.47;;;;;;;7.45;68.71;62769.66;5109366;28;20219;-78
2023/12/26 07:38:14;;;;;;;9.52;6.28;;;;;;;7.26;70.04;62747.53;5110145;28;20206;-77
2023/12/26 07:40:41;;;;;;;8.75;5.78;;;;;;;7.33;70.41;62751.69;5109299;28;20220;-78
2023/12/26 07:43:08;;;;;;;12.55;7.05;;;;;;;7.40;69.99;62764.50;5110120;28;20275;-77
2023/12/26 07:45:35;;;;;;;10.88;6.72;;;;;;;7.53;71.43;62772.34;5108256;28;20219;-79
2023/12/26 07:48:02;;;;;;;7.95;6.78;;;;;;;7.61;70.59;62783.63;5109662;28;20253;-79
2023/12/26 07:50:29;;;;;;;12.80;7.68;;;;;;;7.71;72.02;62790.91;5108751;28;20243;-78
2023/12/26 07:52:58;;;;;;;9.50;6.30;;;;;;;7.69;71.17;62791.91;5109393;28;20239;-77
2023/12/26 07:55:25;;;;;;;8.43;6.75;;;;;;;7.80;71.47;62803.25;5111848;28;20589;-78
2023/12/26 07:57:52;;;;;;;9.77;6.38;;;;;;;7.80;70.62;62803.25;5110031;28;20195;-78
2023/12/26 08:00:19;;;;;;;12.15;6.70;;;;;;;7.80;70.21;62803.25;5109633;28;20254;-78
2023/12/26 08:02:47;;;;;;;11.45;6.60;;;;;;;7.78;70.36;62803.22;5110731;28;20196;-78
2023/12/26 08:05:14;;;;;;;9.73;6.78;;;;;;;7.82;70.30;62807.34;5109753;28;20219;-77
2023/12/26 08:07:41;;;;;;;12.45;6.38;;;;;;;7.89;70.92;62809.50;5109194;28;20379;-77
2023/12/26 08:10:10;;;;;;;13.98;8.75;;;;;;;7.87;70.50;62813.03;5109053;28;20662;-77
2023/12/26 08:12:37;;;;;;;16.30;7.68;;;;;;;7.90;70.11;62810.53;5109556;28;20198;-78
2023/12/26 08:15:05;;;;;;;12.95;8.60;;;;;;;7.99;70.07;62819.81;5109121;28;20224;-77
2023/12/26 08:17:32;;;;;;;20.40;11.10;;;;;;;8.06;68.85;62825.03;5108733;28;20263;-77
2023/12/26 08:19:59;;;;;;;24.75;10.68;;;;;;;7.98;68.84;62826.41;5110405;28;20460;-78
2023/12/26 08:22:26;;;;;;;23.25;12.18;;;;;;;8.11;69.21;62830.19;5109219;28;20196;-77
2023/12/26 08:24:53;;;;;;;23.42;11.80;;;;;;;8.19;67.73;62840.47;5109377;28;20238;-79
2023/12/26 08:27:22;;;;;;;26.00;10.88;;;;;;;8.25;68.04;62846.69;5107859;28;20212;-77
2023/12/26 08:29:49;;;;;;;16.15;9.40;;;;;;;8.41;67.83;62862.69;5110491;28;20252;-77
2023/12/26 08:32:17;;;;;;;18.58;8.70;;;;;;;8.44;67.75;62866.31;5108637;28;20196;-78
2023/12/26 08:34:44;;;;;;;11.35;7.40;;;;;;;8.40;66.99;62866.75;5109065;28;20226;-77
2023/12/26 08:37:12;;;;;;;9.00;6.55;;;;;;;8.53;67.92;62875.09;5109019;28;20192;-77
2023/12/26 08:39:39;;;;;;;10.40;7.15;;;;;;;8.68;67.93;62893.16;5109088;28;20212;-77
2023/12/26 08:42:05;;;;;;;8.32;6.30;;;;;;;8.80;67.44;62905.53;5107446;28;20207;-77
2023/12/26 08:44:34;;;;;;;9.00;5.90;;;;;;;8.85;67.29;62913.25;5108874;28;20528;-77
2023/12/26 08:47:02;;;;;;;8.05;5.30;;;;;;;8.91;67.07;62914.38;5108617;28;20196;-77
2023/12/26 08:49:29;;;;;;;8.05;4.95;;;;;;;9.03;65.69;62931.84;5107935;28;20252;-77
2023/12/26 08:51:56;;;;;;;8.82;5.72;;;;;;;9.11;66.19;62940.13;5109457;28;20286;-78
2023/12/26 08:54:24;;;;;;;5.28;4.78;;;;;;;9.09;66.69;62933.47;5108757;28;20230;-78
2023/12/26 08:56:50;;;;;;;8.10;5.45;;;;;;;9.25;66.17;62949.50;5107866;28;20235;-78
2023/12/26 08:59:19;;;;;;;7.60;4.40;;;;;;;9.30;65.93;62957.22;5108137;28;20539;-79
2023/12/26 09:01:46;;;;;;;9.50;5.70;;;;;;;9.32;65.60;62959.28;5107751;28;20523;-78
2023/12/26 09:04:13;;;;;;;8.68;4.88;;;;;;;9.48;66.06;62972.75;5107666;28;20219;-78
2023/12/26 09:06:40;;;;;;;5.50;4.53;;;;;;;9.60;65.25;62993.31;5108780;28;20199;-78
2023/12/26 09:09:07;;;;;;;9.45;5.70;;;;;;;9.73;63.98;63004.22;5109189;28;20232;-77
2023/12/26 09:11:34;;;;;;;6.15;5.38;;;;;;;9.84;63.21;63010.00;5109425;28;20196;-78
2023/12/26 09:14:02;;;;;;;8.10;5.85;;;;;;;9.72;62.35;63003.19;5109351;28;20286;-78
2023/12/26 09:16:29;;;;;;;11.55;5.45;;;;;;;9.74;61.92;63002.72;5110662;28;20247;-78
2023/12/26 09:18:57;;;;;;;11.00;5.65;;;;;;;9.81;61.21;63004.88;5107591;28;20219;-78
2023/12/26 09:21:24;;;;;;;10.27;5.93;;;;;;;9.78;62.19;63006.34;5108077;28;20206;-78
2023/12/26 09:23:51;;;;;;;5.80;5.18;;;;;;;9.59;62.54;62986.69;5105959;28;20271;-78
2023/12/26 09:26:21;;;;;;;8.93;5.63;;;;;;;9.45;62.96;62969.66;5108804;28;20493;-78
2023/12/26 09:28:48;;;;;;;7.55;5.60;;;;;;;9.47;63.43;62977.34;5109024;28;20196;-77
2023/12/26 09:31:15;;;;;;;9.95;5.05;;;;;;;9.73;62.66;63001.16;5107785;28;20196;-77
2023/12/26 09:33:41;;;;;;;11.32;5.20;;;;;;;9.75;61.62;63003.75;5107036;28;20192;-78
2023/12/26 09:36:10;;;;;;;7.97;5.05;;;;;;;9.80;61.54;63006.38;5109471;28;20196;-78
2023/12/26 09:38:40;;;;;;;6.03;4.72;;;;;;;10.09;61.19;63036.41;5107740;28;20195;-79
2023/12/26 09:41:08;;;;;;;6.13;4.80;;;;;;;10.09;59.76;63033.34;5108932;28;20196;-78
2023/12/26 09:43:35;;;;;;;4.88;4.40;;;;;;;10.14;57.62;63041.06;5113527;28;20204;-78
2023/12/26 09:46:03;;;;;;;7.70;4.72;;;;;;;10.26;57.58;63054.00;5108624;28;20192;-78
2023/12/26 09:48:33;;;;;;;8.00;5.43;;;;;;;10.33;57.91;63061.22;5108166;28;20203;-78
2023/12/26 09:51:00;;;;;;;7.35;5.32;;;;;;;10.48;58.08;63079.28;5108734;28;20265;-78
2023/12/26 09:53:28;;;;;;;15.98;5.35;;;;;;;10.60;57.29;63088.13;5110112;28;20203;-78
2023/12/26 09:55:55;;;;;;;11.20;5.57;;;;;;;10.65;56.67;63098.91;5107717;28;20634;-78
2023/12/26 09:58:22;;;;;;;8.38;5.30;;;;;;;10.84;56.64;63116.03;5108623;28;20505;-78
2023/12/26 10:00:49;;;;;;;6.07;4.88;;;;;;;10.99;55.63;63136.66;5108735;28;20220;-79
2023/12/26 10:03:17;;;;;;;7.35;5.13;;;;;;;10.79;54.03;63108.31;5109175;28;20203;-78
2023/12/26 10:05:44;;;;;;;9.32;5.20;;;;;;;10.74;54.99;63097.53;5107960;28;20239;-78
2023/12/26 10:08:11;;;;;;;5.75;5.15;;;;;;;10.73;55.62;63106.69;5108898;28;20214;-78
2023/12/26 10:10:39;;;;;;;8.68;5.35;;;;;;;10.98;55.47;63132.56;5109124;28;20235;-79
2023/12/26 10:13:06;;;;;;;14.20;5.85;;;;;;;11.11;55.02;63143.97;5108013;28;20211;-79
2023/12/26 10:15:33;;;;;;;7.10;5.65;;;;;;;11.22;53.86;63155.38;5107617;28;20250;-78
2023/12/26 10:18:00;;;;;;;9.93;5.95;;;;;;;11.29;54.29;63162.13;5108114;28;20192;-78
2023/12/26 10:20:27;;;;;;;11.60;4.68;;;;;;;11.45;53.31;63178.69;5108099;28;20224;-79
2023/12/26 10:22:54;;;;;;;11.15;5.30;;;;;;;11.59;53.26;63195.75;5107573;28;20196;-78
2023/12/26 10:25:21;;;;;;;13.13;5.93;;;;;;;11.80;52.67;63214.47;5108095;28;20224;-78
2023/12/26 10:27:55;;;;;;;9.07;6.25;;;;;;;11.99;52.16;63236.69;5109872;28;20218;-80
2023/12/26 10:30:22;;;;;;;7.10;5.32;;;;;;;12.16;51.86;63251.75;5107046;28;20242;-79
2023/12/26 10:32:59;;;;;;;11.45;6.00;;;;;;;12.20;51.13;63256.41;5107233;28;20560;-78
2023/12/26 10:35:26;;;;;;;9.00;5.63;;;;;;;12.05;51.46;63242.91;5107286;28;20219;-78
2023/12/26 10:37:53;;;;;;;7.28;5.32;;;;;;;12.10;51.45;63248.09;5108013;28;20218;-78
2023/12/26 10:40:21;;;;;;;7.88;5.28;;;;;;;12.25;51.08;63261.09;5107070;28;20272;-78
2023/12/26 10:42:49;;;;;;;9.07;4.88;;;;;;;12.16;50.58;63252.28;5106820;28;20225;-78
2023/12/26 10:45:20;;;;;;;12.82;5.47;;;;;;;11.91;50.59;63223.31;5107622;28;20242;-79
2023/12/26 10:47:48;;;;;;;14.55;5.32;;;;;;;12.34;50.82;63268.38;5107474;28;20215;-78
2023/12/26 10:50:16;;;;;;;5.78;4.55;;;;;;;12.45;49.70;63282.34;5107121;28;20257;-79
2023/12/26 10:55:23;;;;;;;6.93;4.57;;;;;;;12.44;49.11;63275.69;5104988;28;20320;-78
2023/12/26 10:57:50;;;;;;;7.43;4.38;;;;;;;12.47;49.30;63281.88;5108327;28;20202;-78
2023/12/26 11:00:53;;;;;;;7.00;4.25;;;;;;;12.59;48.24;63299.41;5107161;28;20215;-79
2023/12/26 13:51:41;;;;;;;3.67;2.90;;;;;;;11.99;47.50;63234.16;5108976;28;20211;-79
2023/12/26 13:54:07;;;;;;;3.35;2.85;;;;;;;11.91;47.33;63223.81;5108047;28;20520;-78
2023/12/26 13:56:33;;;;;;;7.45;5.20;;;;;;;11.76;47.06;63210.81;5109159;28;20192;-78
2023/12/26 13:58:59;;;;;;;8.48;5.50;;;;;;;11.69;48.22;63197.94;5108228;28;20257;-79
2023/12/26 14:01:28;;;;;;;4.90;4.47;;;;;;;11.61;48.36;63195.28;5108841;28;20492;-78
2023/12/26 14:03:56;;;;;;;4.10;3.65;;;;;;;11.55;47.46;63189.03;5109026;28;20207;-79
2023/12/26 14:06:22;;;;;;;14.60;9.70;;;;;;;11.33;47.53;63169.34;5110235;28;20443;-79
2023/12/26 14:08:51;;;;;;;8.77;6.40;;;;;;;10.88;50.87;63120.19;5107612;28;20196;-79
2023/12/26 14:11:18;;;;;;;5.38;4.53;;;;;;;10.61;51.30;63094.78;5109577;28;20262;-78
2023/12/26 14:13:45;;;;;;;4.35;3.72;;;;;;;10.64;50.72;63095.34;5109551;28;20207;-78
2023/12/26 14:16:12;;;;;;;20.63;9.05;;;;;;;10.60;50.50;63093.75;5107575;28;20192;-78
2023/12/26 14:18:39;;;;;;;8.40;3.88;;;;;;;10.60;48.71;63093.75;5107347;28;20447;-78
2023/12/26 14:21:06;;;;;;;4.78;2.63;;;;;;;10.62;48.30;63092.75;5108800;28;20219;-78
2023/12/26 14:23:33;;;;;;;5.53;3.25;;;;;;;10.62;48.56;63090.19;5108175;28;20203;-78
2023/12/26 14:26:02;;;;;;;3.08;2.80;;;;;;;10.69;49.06;63100.00;5108856;28;20207;-78
2023/12/26 14:28:28;;;;;;;3.15;2.90;;;;;;;10.72;48.99;63098.00;5107392;28;20195;-78
2023/12/26 14:30:56;;;;;;;6.38;3.28;;;;;;;10.67;49.31;63106.09;5108115;28;20223;-78